createdAt,value
2018-11-22T12:18:18.705Z,39.60
2018-11-22T12:20:46.821Z,39.30
2018-11-22T12:23:14.951Z,39.87
2018-11-22T12:25:43.110Z,39.00
2018-11-22T12:28:11.224Z,40.40
2018-11-22T12:30:39.424Z,40.77
2018-11-22T12:33:08.976Z,41.63
2018-11-22T12:35:47.338Z,39.20
2018-11-22T12:38:20.888Z,38.37
2018-11-22T12:40:48.993Z,39.03
2018-11-22T12:43:17.101Z,37.70
2018-11-22T12:45:45.228Z,39.20
2018-11-22T12:48:13.427Z,40.03
2018-11-22T12:50:41.563Z,38.40
2018-11-22T12:53:09.676Z,37.87
2018-11-22T12:55:37.811Z,37.93
2018-11-22T12:58:05.916Z,38.13
2018-11-22T13:00:34.119Z,40.13
2018-11-22T13:03:02.245Z,40.20
2018-11-22T13:05:31.397Z,39.43
2018-11-22T13:07:59.888Z,38.93
2018-11-22T13:10:28.231Z,38.30
2018-11-22T13:12:56.493Z,37.67
2018-11-22T13:15:24.684Z,39.63
2018-11-22T13:17:53.613Z,37.73
2018-11-22T13:20:23.152Z,39.20
2018-11-22T13:22:52.669Z,38.87
2018-11-22T13:25:22.187Z,37.83
2018-11-22T13:27:50.354Z,38.23
2018-11-22T13:30:21.097Z,38.80
2018-11-22T13:32:50.571Z,38.40
2018-11-22T13:35:19.312Z,39.03
2018-11-22T13:37:48.918Z,38.07
2018-11-22T13:40:18.285Z,40.17
2018-11-22T13:42:47.797Z,40.03
2018-11-22T13:45:18.340Z,39.57
2018-11-22T13:47:47.656Z,38.03
2018-11-22T13:50:18.404Z,38.33
2018-11-22T13:52:47.881Z,40.43
2018-11-22T13:55:16.469Z,40.03
2018-11-22T13:57:44.766Z,39.27
2018-11-22T14:00:14.989Z,39.07
2018-11-22T14:02:44.105Z,40.27
2018-11-22T14:05:12.204Z,41.53
2018-11-22T14:07:41.049Z,40.30
2018-11-22T14:10:12.051Z,41.20
2018-11-22T14:12:41.159Z,39.97
2018-11-22T14:15:11.519Z,38.27
2018-11-22T14:17:40.357Z,38.90
2018-11-22T14:20:10.103Z,39.47
2018-11-22T14:22:38.777Z,41.27
2018-11-22T14:25:07.589Z,41.47
2018-11-22T14:27:36.118Z,40.13
2018-11-22T14:30:05.082Z,39.03
2018-11-22T14:32:33.564Z,39.70
2018-11-22T14:35:01.846Z,41.57
2018-11-22T14:37:30.232Z,40.03
2018-11-22T14:39:58.579Z,41.57
2018-11-22T14:42:27.577Z,40.13
2018-11-22T14:44:56.229Z,39.97
2018-11-22T14:47:24.372Z,40.43
2018-11-22T14:49:53.940Z,38.97
2018-11-22T14:52:23.453Z,39.20
2018-11-22T14:54:51.829Z,40.83
2018-11-22T14:57:20.340Z,39.20
2018-11-22T14:59:49.632Z,39.87
2018-11-22T15:02:17.885Z,39.53
2018-11-22T15:04:46.036Z,39.57
2018-11-22T15:07:14.242Z,40.30
2018-11-22T15:09:42.341Z,41.17
2018-11-22T15:12:10.467Z,38.70
2018-11-22T15:14:38.568Z,41.30
2018-11-22T15:17:06.837Z,39.70
2018-11-22T15:19:34.993Z,40.07
2018-11-22T15:22:03.117Z,40.37
2018-11-22T15:24:31.267Z,39.67
2018-11-22T15:26:59.457Z,41.43
2018-11-22T15:29:27.594Z,38.83
2018-11-22T15:31:55.810Z,41.17
2018-11-22T15:34:23.929Z,41.27
2018-11-22T15:36:52.041Z,41.53
2018-11-22T15:39:20.131Z,39.47
2018-11-22T15:41:48.232Z,38.80
2018-11-22T15:44:16.376Z,40.83
2018-11-22T15:46:44.485Z,39.00
2018-11-22T15:49:12.613Z,39.23
2018-11-22T15:51:40.737Z,40.27
2018-11-22T15:54:08.847Z,39.83
2018-11-22T15:56:37.031Z,39.83
2018-11-22T15:59:05.322Z,40.80
2018-11-22T16:01:33.436Z,39.73
2018-11-22T16:04:01.554Z,40.43
2018-11-22T16:06:29.643Z,39.87
2018-11-22T16:08:57.794Z,39.23
2018-11-22T16:11:25.887Z,41.20
2018-11-22T16:13:54.011Z,39.83
2018-11-22T16:16:22.192Z,39.70
2018-11-22T16:18:50.297Z,38.90
2018-11-22T16:21:18.420Z,40.53
2018-11-22T16:23:46.536Z,39.70
2018-11-22T16:26:14.669Z,40.10
2018-11-22T16:28:42.891Z,41.47
2018-11-22T16:31:10.991Z,41.30
2018-11-22T16:33:39.095Z,40.60
2018-11-22T16:36:07.264Z,40.53
2018-11-22T16:38:35.440Z,41.03
2018-11-22T16:41:03.596Z,42.63
2018-11-22T16:43:31.710Z,40.97
2018-11-22T16:45:59.848Z,42.07
2018-11-22T16:48:28.038Z,40.27
2018-11-22T16:50:56.291Z,40.13
2018-11-22T16:53:24.424Z,41.80
2018-11-22T16:55:53.160Z,41.60
2018-11-22T16:58:21.340Z,42.37
2018-11-22T17:00:49.545Z,42.30
2018-11-22T17:03:17.744Z,40.33
2018-11-22T17:05:45.876Z,41.37
2018-11-22T17:08:13.984Z,39.47
2018-11-22T17:10:42.505Z,40.90
2018-11-22T17:13:10.621Z,40.13
2018-11-22T17:15:39.796Z,39.80
2018-11-22T17:18:08.560Z,41.83
2018-11-22T17:20:36.680Z,41.17
2018-11-22T17:23:05.245Z,42.10
2018-11-22T17:25:34.234Z,42.00
2018-11-22T17:28:03.870Z,41.87
2018-11-22T17:30:33.634Z,42.23
2018-11-22T17:33:01.815Z,42.43
2018-11-22T17:35:30.644Z,41.10
2018-11-22T17:38:00.026Z,42.87
2018-11-22T17:40:29.727Z,42.73
2018-11-22T17:42:57.901Z,42.20
2018-11-22T17:45:28.616Z,41.80
2018-11-22T17:47:56.761Z,41.77
2018-11-22T17:50:25.872Z,41.27
2018-11-22T17:52:54.040Z,40.93
2018-11-22T17:55:23.782Z,41.83
2018-11-22T17:57:51.878Z,40.80
2018-11-22T18:00:21.705Z,40.87
2018-11-22T18:02:51.163Z,40.33
2018-11-22T18:05:19.452Z,41.80
2018-11-22T18:07:47.623Z,41.47
2018-11-22T18:10:17.450Z,41.43
2018-11-22T18:12:46.555Z,40.83
2018-11-22T18:15:16.036Z,40.30
2018-11-22T18:17:44.467Z,38.77
2018-11-22T18:20:15.138Z,39.90
2018-11-22T18:22:43.741Z,39.43
2018-11-22T18:25:14.379Z,40.23
2018-11-22T18:27:42.487Z,40.27
2018-11-22T18:30:13.145Z,39.60
2018-11-22T18:32:41.689Z,40.77
2018-11-22T18:35:10.935Z,40.57
2018-11-22T18:37:39.481Z,40.00
2018-11-22T18:40:10.872Z,40.20
2018-11-22T18:42:39.065Z,40.50
2018-11-22T18:45:09.672Z,41.27
2018-11-22T18:47:38.268Z,43.23
2018-11-22T18:50:15.552Z,43.47
2018-11-22T18:52:37.809Z,40.03
2018-11-22T18:55:06.603Z,41.17
2018-11-22T18:57:34.919Z,40.10
2018-11-22T19:00:04.734Z,40.47
2018-11-22T19:02:34.832Z,39.77
2018-11-22T19:05:03.364Z,38.93
2018-11-22T19:07:32.054Z,38.47
2018-11-22T19:10:00.214Z,39.23
2018-11-22T19:12:28.670Z,38.93
2018-11-22T19:14:57.001Z,38.30
2018-11-22T19:17:25.280Z,38.53
2018-11-22T19:19:54.004Z,38.77
2018-11-22T19:22:22.293Z,38.10
2018-11-22T19:24:50.851Z,37.00
2018-11-22T19:27:19.029Z,37.13
2018-11-22T19:29:47.797Z,38.37
2018-11-22T19:32:17.068Z,37.90
2018-11-22T19:34:45.493Z,38.87
2018-11-22T19:37:13.742Z,37.60
2018-11-22T19:39:44.526Z,37.80
2018-11-22T19:42:13.064Z,37.70
2018-11-22T19:44:41.492Z,39.00
2018-11-22T19:47:09.693Z,38.83
2018-11-22T19:49:37.892Z,37.13
2018-11-22T19:52:06.313Z,36.40
2018-11-22T19:54:34.823Z,36.47
2018-11-22T19:57:03.225Z,36.33
2018-11-22T19:59:31.872Z,36.73
2018-11-22T20:02:00.474Z,36.73
2018-11-22T20:04:28.645Z,37.93
2018-11-22T20:06:57.123Z,37.17
2018-11-22T20:09:26.391Z,35.43
2018-11-22T20:11:54.683Z,37.53
2018-11-22T20:14:22.800Z,36.27
2018-11-22T20:16:50.966Z,38.73
2018-11-22T20:19:19.133Z,37.80
2018-11-22T20:21:47.521Z,37.50
2018-11-22T20:24:15.655Z,36.23
2018-11-22T20:26:43.757Z,37.30
2018-11-22T20:29:11.962Z,37.10
2018-11-22T20:31:40.193Z,38.10
2018-11-22T20:34:08.319Z,36.00
2018-11-22T20:36:36.445Z,36.43
2018-11-22T20:39:07.159Z,37.07
2018-11-22T20:41:35.353Z,36.43
2018-11-22T20:44:03.484Z,36.10
2018-11-22T20:46:31.615Z,36.30
2018-11-22T20:48:59.750Z,36.13
2018-11-22T20:51:27.853Z,37.27
2018-11-22T20:53:55.959Z,35.93
2018-11-22T20:56:24.143Z,35.30
2018-11-22T20:58:52.255Z,37.53
2018-11-22T21:01:20.391Z,35.27
2018-11-22T21:03:48.595Z,34.93
2018-11-22T21:06:16.755Z,34.23
2018-11-22T21:08:48.619Z,33.87
2018-11-22T21:11:13.080Z,34.83
2018-11-22T21:13:41.226Z,35.73
2018-11-22T21:16:09.406Z,34.73
2018-11-22T21:18:37.614Z,37.03
2018-11-22T21:21:05.963Z,34.37
2018-11-22T21:23:34.177Z,35.27
2018-11-22T21:26:02.306Z,35.10
2018-11-22T21:28:30.471Z,34.10
2018-11-22T21:30:58.633Z,36.07
2018-11-22T21:33:26.924Z,35.67
2018-11-22T21:35:58.133Z,33.93
2018-11-22T21:38:26.500Z,34.63
2018-11-22T21:40:56.615Z,35.30
2018-11-22T21:43:26.436Z,32.97
2018-11-22T21:45:54.782Z,35.57
2018-11-22T21:48:22.905Z,35.93
2018-11-22T21:50:51.024Z,33.83
2018-11-22T21:53:19.145Z,32.93
2018-11-22T21:55:47.285Z,32.40
2018-11-22T21:58:15.424Z,31.93
2018-11-22T22:00:43.552Z,32.40
2018-11-22T22:03:12.251Z,33.70
2018-11-22T22:05:40.939Z,32.47
2018-11-22T22:08:09.209Z,34.27
2018-11-22T22:10:37.340Z,32.30
2018-11-22T22:13:05.464Z,32.13
2018-11-22T22:15:34.841Z,31.20
2018-11-22T22:18:03.152Z,33.17
2018-11-22T22:20:32.801Z,32.10
2018-11-22T22:23:00.977Z,31.00
2018-11-22T22:25:29.375Z,32.20
2018-11-22T22:27:58.070Z,30.80
2018-11-22T22:30:27.856Z,32.10
2018-11-22T22:32:57.379Z,32.33
2018-11-22T22:35:25.488Z,33.40
2018-11-22T22:37:53.820Z,32.50
2018-11-22T22:40:23.118Z,31.70
2018-11-22T22:42:52.331Z,32.07
2018-11-22T22:45:21.507Z,30.27
2018-11-22T22:47:50.390Z,32.67
2018-11-22T22:50:20.710Z,32.73
2018-11-22T22:52:50.211Z,31.60
2018-11-22T22:55:18.396Z,32.53
2018-11-22T22:57:46.551Z,31.80
2018-11-22T23:00:23.651Z,31.53
2018-11-22T23:02:53.994Z,34.10
2018-11-22T23:05:22.563Z,32.67
2018-11-22T23:07:50.871Z,33.20
2018-11-22T23:10:19.783Z,30.90
2018-11-22T23:12:47.950Z,31.43
2018-11-22T23:15:17.099Z,31.77
2018-11-22T23:17:45.234Z,32.67
2018-11-22T23:20:16.851Z,31.93
2018-11-22T23:22:45.658Z,31.70
2018-11-22T23:25:14.592Z,31.13
2018-11-22T23:27:42.726Z,32.07
2018-11-22T23:30:13.027Z,30.93
2018-11-22T23:32:42.097Z,32.03
2018-11-22T23:35:10.690Z,31.07
2018-11-22T23:37:39.054Z,31.23
2018-11-22T23:40:08.465Z,31.13
2018-11-22T23:42:36.934Z,31.10
2018-11-22T23:45:05.935Z,31.60
2018-11-22T23:47:34.118Z,30.80
2018-11-22T23:50:02.331Z,31.87
2018-11-22T23:52:30.465Z,31.90
2018-11-22T23:54:58.633Z,31.13
2018-11-22T23:57:26.752Z,32.23
2018-11-22T23:59:54.901Z,30.17
